Time;durP1;ratioP1;P1;durP2;ratioP2;P2;SDS_P1;SDS_P2;PMS_P1;PMS_P2;Temp;Humidity;BMP_temperature;BMP_pressure;BME280_temperature;BME280_humidity;BME280_pressure;Samples;Min_cycle;Max_cycle;Signal;HPM_P1;HPM_P2
2021/11/25 00:00:32;;;;;;;39.48;15.28;;;;;;;0.38;67.35;102555.66;1957594;73;21133;-73
2021/11/25 00:03:01;;;;;;;31.73;12.13;;;;;;;0.41;67.43;102559.17;1957658;73;21531;-73
2021/11/25 00:05:30;;;;;;;33.33;12.47;;;;;;;0.40;67.38;102557.44;1957664;73;21462;-72
2021/11/25 00:08:00;;;;;;;36.10;14.15;;;;;;;0.38;67.45;102554.79;1957622;73;21003;-73
2021/11/25 00:10:29;;;;;;;45.25;14.20;;;;;;;0.32;67.85;102551.58;1957668;73;21559;-72
2021/11/25 00:12:58;;;;;;;46.37;15.50;;;;;;;0.29;68.03;102552.77;1957474;73;21074;-72
2021/11/25 00:15:27;;;;;;;32.65;12.93;;;;;;;0.27;68.37;102561.34;1957634;73;21023;-72
2021/11/25 00:17:56;;;;;;;38.17;13.60;;;;;;;0.25;68.62;102561.28;1957652;73;21125;-72
2021/11/25 00:20:25;;;;;;;53.40;16.87;;;;;;;0.28;68.61;102567.88;1957635;73;21066;-72
2021/11/25 00:22:54;;;;;;;44.10;16.02;;;;;;;0.27;68.73;102566.09;1957651;73;21540;-70
2021/11/25 00:25:22;;;;;;;37.75;14.47;;;;;;;0.21;68.88;102565.91;1957548;73;21050;-72
2021/11/25 00:27:51;;;;;;;37.58;13.90;;;;;;;0.25;68.56;102567.76;1957635;73;21096;-66
2021/11/25 00:30:22;;;;;;;38.85;15.75;;;;;;;0.25;68.33;102565.17;1956693;73;21087;-68
2021/11/25 00:32:51;;;;;;;38.08;14.50;;;;;;;0.28;68.18;102563.98;1957730;73;21097;-68
2021/11/25 00:35:20;;;;;;;61.70;15.45;;;;;;;0.27;68.24;102560.91;1952314;73;21141;-70
2021/11/25 00:37:49;;;;;;;39.15;14.63;;;;;;;0.24;68.20;102560.84;1950753;73;21572;-72
2021/11/25 00:40:20;;;;;;;33.83;13.32;;;;;;;0.24;68.10;102558.24;1950833;73;21051;-69
2021/11/25 00:42:49;;;;;;;29.23;9.45;;;;;;;0.25;68.06;102557.82;1950831;73;21093;-69
2021/11/25 00:45:19;;;;;;;34.67;12.63;;;;;;;0.24;68.03;102553.06;1950845;73;20995;-69
2021/11/25 00:47:48;;;;;;;38.70;13.45;;;;;;;0.24;68.06;102553.45;1950788;73;21023;-67
2021/11/25 00:50:18;;;;;;;30.65;11.93;;;;;;;0.20;68.34;102556.36;1950658;73;21533;-67
2021/11/25 00:52:47;;;;;;;36.13;12.30;;;;;;;0.21;68.35;102564.61;1950656;73;21106;-68
2021/11/25 00:55:17;;;;;;;38.05;13.30;;;;;;;0.24;68.23;102559.55;1950756;73;21062;-68
2021/11/25 00:57:46;;;;;;;38.13;12.28;;;;;;;0.24;68.15;102555.66;1950684;73;21121;-67
2021/11/25 01:00:17;;;;;;;29.92;11.33;;;;;;;0.24;68.17;102558.24;1950680;73;21106;-67
2021/11/25 01:02:46;;;;;;;42.05;12.15;;;;;;;0.24;68.14;102559.94;1950672;73;21089;-68
2021/11/25 01:05:16;;;;;;;38.55;13.70;;;;;;;0.24;68.12;102554.36;1950606;73;21646;-70
2021/11/25 01:07:47;;;;;;;36.15;13.28;;;;;;;0.18;68.38;102552.45;1950669;73;21086;-68
2021/11/25 01:10:18;;;;;;;38.83;13.68;;;;;;;0.15;68.46;102546.28;1950708;73;21486;-67
2021/11/25 01:12:47;;;;;;;30.57;10.70;;;;;;;0.15;68.46;102542.40;1950699;73;21454;-67
2021/11/25 01:15:18;;;;;;;40.12;13.13;;;;;;;0.16;68.49;102551.91;1950860;73;21466;-68
2021/11/25 01:17:47;;;;;;;32.70;12.82;;;;;;;0.15;68.57;102535.50;1950808;73;21062;-67
2021/11/25 01:20:18;;;;;;;33.48;12.63;;;;;;;0.17;68.51;102544.20;1950669;73;21121;-67
2021/11/25 01:22:47;;;;;;;36.58;12.20;;;;;;;0.20;68.51;102546.00;1950604;73;21548;-66
2021/11/25 01:25:16;;;;;;;34.70;12.20;;;;;;;0.21;68.48;102542.59;1950599;73;21027;-66
2021/11/25 01:27:45;;;;;;;27.93;11.05;;;;;;;0.21;68.61;102551.66;1950636;73;21090;-71
2021/11/25 01:30:14;;;;;;;36.85;12.10;;;;;;;0.22;68.63;102556.41;1950567;73;21541;-71
2021/11/25 01:32:43;;;;;;;38.90;13.18;;;;;;;0.21;68.68;102555.55;1950711;73;21478;-71
2021/11/25 01:35:13;;;;;;;32.70;11.08;;;;;;;0.21;68.65;102550.36;1950515;73;21144;-68
2021/11/25 01:37:42;;;;;;;28.95;10.70;;;;;;;0.20;68.57;102555.06;1950634;73;21540;-68
2021/11/25 01:40:13;;;;;;;27.70;11.50;;;;;;;0.21;68.49;102554.25;1950652;73;21031;-68
2021/11/25 01:42:43;;;;;;;36.73;11.63;;;;;;;0.21;68.41;102553.38;1950676;73;21137;-69
2021/11/25 01:45:14;;;;;;;36.28;10.78;;;;;;;0.20;68.44;102555.06;1950738;73;21100;-69
2021/11/25 01:47:47;;;;;;;29.77;9.83;;;;;;;0.19;68.42;102555.91;1950860;73;21027;-69
2021/11/25 01:50:18;;;;;;;31.55;10.55;;;;;;;0.19;68.43;102550.73;1950991;73;21100;-67
2021/11/25 01:52:47;;;;;;;33.90;11.70;;;;;;;0.17;68.42;102546.78;1950755;73;21497;-66
2021/11/25 01:55:18;;;;;;;30.82;11.38;;;;;;;0.18;68.39;102551.16;1950806;73;21114;-65
2021/11/25 01:57:49;;;;;;;31.45;12.23;;;;;;;0.18;68.53;102547.66;1950795;73;21136;-64
2021/11/25 02:00:30;;;;;;;33.50;11.83;;;;;;;0.20;68.74;102546.00;1950692;73;21051;-63
2021/11/25 02:03:00;;;;;;;38.63;12.98;;;;;;;0.19;68.83;102542.95;1950783;73;21059;-65
2021/11/25 02:05:30;;;;;;;36.30;11.90;;;;;;;0.17;69.07;102551.97;1950709;73;21095;-67
2021/11/25 02:07:59;;;;;;;42.23;13.58;;;;;;;0.20;69.30;102544.70;1950858;73;21031;-68
2021/11/25 02:10:27;;;;;;;38.67;11.70;;;;;;;0.25;69.26;102549.63;1950627;73;21099;-73
2021/11/25 02:12:56;;;;;;;42.30;13.25;;;;;;;0.29;69.19;102544.13;1951012;73;21027;-62
2021/11/25 02:15:26;;;;;;;31.82;11.25;;;;;;;0.27;69.32;102541.91;1957616;73;21587;-67
2021/11/25 02:17:55;;;;;;;38.80;13.85;;;;;;;0.26;69.37;102543.62;1883956;70;21205;-60
2021/11/25 02:20:25;;;;;;;39.58;13.38;;;;;;;0.29;69.29;102541.11;1959683;73;21041;-60
2021/11/25 02:22:54;;;;;;;32.55;11.18;;;;;;;0.27;69.55;102551.84;1954230;73;21080;-61
2021/11/25 02:25:23;;;;;;;31.73;11.48;;;;;;;0.24;69.57;102552.16;1946361;73;21027;-60
2021/11/25 02:27:51;;;;;;;37.40;12.13;;;;;;;0.17;69.64;102552.39;1941546;73;21023;-61
2021/11/25 02:30:21;;;;;;;31.97;11.60;;;;;;;0.14;69.60;102553.58;1923394;74;21064;-61
2021/11/25 02:32:50;;;;;;;37.15;12.45;;;;;;;0.12;69.54;102552.22;1891863;74;21528;-60
2021/11/25 02:35:22;;;;;;;31.48;11.25;;;;;;;0.08;69.64;102545.61;1888774;76;21051;-60
2021/11/25 02:37:53;;;;;;;32.45;10.18;;;;;;;0.05;69.91;102551.55;1888761;76;21043;-60
2021/11/25 02:40:24;;;;;;;28.70;11.05;;;;;;;0.06;69.86;102544.69;1903934;73;21019;-60
2021/11/25 02:42:56;;;;;;;29.63;10.72;;;;;;;0.05;69.97;102545.50;1923000;74;21465;-60
2021/11/25 02:45:26;;;;;;;30.97;10.65;;;;;;;0.04;69.84;102550.20;1923129;74;21027;-61
2021/11/25 02:47:55;;;;;;;53.33;10.70;;;;;;;0.03;69.74;102549.75;1929878;73;21166;-61
2021/11/25 02:50:26;;;;;;;25.70;10.48;;;;;;;-0.01;69.92;102548.77;1945446;73;21470;-61
2021/11/25 02:52:55;;;;;;;29.42;10.40;;;;;;;-0.01;69.89;102553.53;1935248;73;20997;-61
2021/11/25 02:55:24;;;;;;;33.53;11.22;;;;;;;0.01;69.85;102548.83;1923453;74;21025;-61
2021/11/25 02:57:53;;;;;;;29.77;10.25;;;;;;;0.02;69.72;102556.66;1922936;74;21134;-61
2021/11/25 03:00:24;;;;;;;34.05;9.98;;;;;;;0.01;69.74;102554.01;1923150;74;21165;-61
2021/11/25 03:02:58;;;;;;;36.33;11.00;;;;;;;0.01;69.77;102557.89;1923217;74;21015;-61
2021/11/25 03:05:28;;;;;;;28.10;9.73;;;;;;;0.01;69.83;102554.88;1923644;74;21026;-61
2021/11/25 03:07:59;;;;;;;33.42;12.30;;;;;;;0.03;69.68;102560.11;1923347;74;21094;-61
2021/11/25 03:10:29;;;;;;;31.95;10.45;;;;;;;0.04;69.74;102557.97;1923417;73;21104;-61
2021/11/25 03:12:58;;;;;;;37.15;11.38;;;;;;;0.00;69.77;102554.43;1923406;74;21474;-61
2021/11/25 03:15:31;;;;;;;30.92;10.50;;;;;;;-0.01;69.77;102548.77;1923593;74;21053;-61
2021/11/25 03:18:01;;;;;;;27.87;11.08;;;;;;;-0.01;69.79;102549.64;1923611;74;21116;-61
2021/11/25 03:20:30;;;;;;;35.45;12.40;;;;;;;-0.04;69.86;102550.86;1923264;73;21143;-61
2021/11/25 03:22:58;;;;;;;24.07;8.98;;;;;;;-0.07;69.91;102540.80;1923384;74;21037;-61
2021/11/25 03:25:29;;;;;;;22.48;8.53;;;;;;;-0.05;69.83;102545.62;1923687;74;21088;-61
2021/11/25 03:27:57;;;;;;;30.68;10.13;;;;;;;-0.03;69.79;102543.95;1923521;74;21108;-60
2021/11/25 03:30:26;;;;;;;24.27;9.20;;;;;;;-0.02;69.75;102546.99;1935703;74;21059;-61
2021/11/25 03:32:55;;;;;;;29.12;9.80;;;;;;;-0.03;69.72;102547.42;1929097;74;21102;-62
2021/11/25 03:35:24;;;;;;;28.55;9.83;;;;;;;-0.03;69.82;102547.42;1946440;74;21043;-60
2021/11/25 03:37:53;;;;;;;33.92;10.72;;;;;;;-0.03;69.85;102546.55;1946428;74;21035;-64
2021/11/25 03:40:21;;;;;;;27.25;9.75;;;;;;;-0.05;69.90;102550.38;1943978;74;21003;-62
2021/11/25 03:42:51;;;;;;;28.05;10.55;;;;;;;-0.04;69.95;102554.73;1946649;74;21112;-60
2021/11/25 03:45:20;;;;;;;28.98;9.53;;;;;;;-0.06;69.96;102551.19;1946391;74;21047;-61
2021/11/25 03:47:49;;;;;;;33.30;10.55;;;;;;;-0.04;69.93;102557.33;1946366;74;21094;-60
2021/11/25 03:50:18;;;;;;;28.27;9.18;;;;;;;-0.05;69.94;102555.55;1943909;74;21047;-60
2021/11/25 03:52:46;;;;;;;29.30;10.08;;;;;;;-0.04;69.92;102551.25;1946539;74;21547;-62
2021/11/25 03:55:18;;;;;;;25.50;8.55;;;;;;;-0.03;69.84;102550.01;1946411;74;21039;-61
2021/11/25 03:57:47;;;;;;;27.58;10.90;;;;;;;-0.02;69.79;102547.90;1930641;74;21003;-61
2021/11/25 04:00:19;;;;;;;26.07;10.85;;;;;;;-0.03;69.85;102540.07;1919086;75;21610;-62
2021/11/25 04:02:49;;;;;;;32.73;11.30;;;;;;;-0.03;69.80;102550.01;1919196;75;21604;-59
2021/11/25 04:05:19;;;;;;;24.77;8.45;;;;;;;-0.06;69.84;102541.25;1920727;74;21086;-59
2021/11/25 04:07:48;;;;;;;25.20;9.70;;;;;;;-0.05;69.85;102541.31;1890592;76;21046;-59
2021/11/25 04:10:17;;;;;;;31.23;9.93;;;;;;;-0.05;69.76;102545.20;1857041;77;21562;-60
2021/11/25 04:12:46;;;;;;;29.30;9.70;;;;;;;-0.05;69.71;102538.72;1857038;77;21485;-61
2021/11/25 04:15:18;;;;;;;29.42;10.25;;;;;;;-0.04;69.69;102539.20;1857081;77;21488;-60
2021/11/25 04:17:47;;;;;;;31.57;11.55;;;;;;;-0.11;69.89;102537.23;1857115;77;21050;-60
2021/11/25 04:20:17;;;;;;;31.42;10.13;;;;;;;-0.12;69.90;102540.63;1894983;75;21508;-60
2021/11/25 04:22:46;;;;;;;33.30;12.70;;;;;;;-0.09;69.83;102542.05;1988806;72;21043;-59
2021/11/25 04:25:16;;;;;;;29.07;9.73;;;;;;;-0.09;69.83;102538.16;1988817;72;21212;-60
2021/11/25 04:27:45;;;;;;;29.63;10.63;;;;;;;-0.07;69.74;102542.97;1988755;72;21479;-59
2021/11/25 04:35:35;;;;;;;27.13;9.58;;;;;;;-0.08;69.98;102538.61;1933548;74;20110;-61
2021/11/25 04:38:18;;;;;;;29.95;10.32;;;;;;;-0.09;69.78;102537.25;1972401;73;21436;-61
2021/11/25 04:40:54;;;;;;;36.75;11.83;;;;;;;-0.10;69.79;102533.80;1933791;74;21073;-61
2021/11/25 04:43:25;;;;;;;25.77;9.70;;;;;;;-0.15;69.90;102531.45;1972341;73;21053;-61
2021/11/25 04:45:54;;;;;;;33.75;10.90;;;;;;;-0.14;69.85;102541.00;1933413;74;21029;-62
2021/11/25 04:48:26;;;;;;;30.92;11.43;;;;;;;-0.13;69.82;102536.30;1933707;74;21528;-60
2021/11/25 04:50:56;;;;;;;35.40;12.60;;;;;;;-0.11;69.77;102532.05;1933784;74;21041;-60
2021/11/25 04:53:25;;;;;;;37.35;12.28;;;;;;;-0.08;69.69;102533.42;1933753;74;21033;-60
2021/11/25 04:55:54;;;;;;;34.25;10.65;;;;;;;-0.07;69.63;102541.67;1933598;74;21541;-60
2021/11/25 04:58:23;;;;;;;36.90;11.70;;;;;;;-0.09;69.76;102532.98;1933596;74;21045;-62
2021/11/25 05:00:52;;;;;;;33.92;11.30;;;;;;;-0.11;69.85;102540.21;1933693;74;21037;-60
2021/11/25 05:03:21;;;;;;;31.20;10.50;;;;;;;-0.11;69.86;102534.64;1933625;74;21068;-61
2021/11/25 05:05:50;;;;;;;38.85;12.03;;;;;;;-0.12;69.82;102532.87;1933656;74;21080;-61
2021/11/25 05:08:18;;;;;;;38.45;13.70;;;;;;;-0.11;69.90;102534.64;1933653;74;21084;-62
2021/11/25 05:10:47;;;;;;;30.10;10.90;;;;;;;-0.06;69.96;102536.95;1928058;73;21034;-62
2021/11/25 05:13:16;;;;;;;31.95;13.43;;;;;;;0.02;69.86;102536.33;1926600;74;21102;-60
2021/11/25 05:15:45;;;;;;;41.95;15.28;;;;;;;0.06;69.79;102535.63;1926450;74;21128;-63
2021/11/25 05:18:14;;;;;;;45.20;18.87;;;;;;;0.04;70.03;102539.84;1926618;74;21050;-62
2021/11/25 05:20:45;;;;;;;35.65;12.93;;;;;;;0.04;70.24;102543.34;1936920;73;21485;-62
2021/11/25 05:23:14;;;;;;;35.92;11.33;;;;;;;0.05;70.20;102537.73;1952975;73;21116;-63
2021/11/25 05:25:43;;;;;;;25.30;12.18;;;;;;;0.07;70.34;102547.73;1953005;73;21547;-63
2021/11/25 05:28:12;;;;;;;34.10;11.60;;;;;;;0.11;70.21;102553.47;1930966;73;21104;-62
2021/11/25 05:30:41;;;;;;;32.05;10.20;;;;;;;0.15;70.26;102554.06;1926466;74;21128;-61
2021/11/25 05:33:10;;;;;;;32.50;12.05;;;;;;;0.20;70.16;102551.17;1926617;74;21078;-62
2021/11/25 05:35:38;;;;;;;35.55;12.13;;;;;;;0.26;70.04;102551.40;1928281;73;21425;-62
2021/11/25 05:38:07;;;;;;;36.10;12.18;;;;;;;0.30;70.00;102558.44;1926383;74;21035;-62
2021/11/25 05:40:37;;;;;;;35.48;12.88;;;;;;;0.34;70.00;102554.23;1926725;74;21050;-61
2021/11/25 05:43:06;;;;;;;17.85;7.25;;;;;;;0.37;70.00;102557.80;1926505;74;21462;-61
2021/11/25 05:45:35;;;;;;;34.53;11.73;;;;;;;0.44;69.94;102553.67;1926644;74;21034;-61
2021/11/25 05:48:05;;;;;;;28.90;10.82;;;;;;;0.44;69.90;102549.79;1926618;74;21034;-61
2021/11/25 05:50:34;;;;;;;41.88;13.88;;;;;;;0.46;69.92;102551.14;1941728;73;21015;-62
2021/11/25 05:53:03;;;;;;;33.13;11.03;;;;;;;0.49;70.11;102553.84;1953069;73;21027;-62
2021/11/25 05:55:32;;;;;;;29.63;11.28;;;;;;;0.52;70.09;102556.54;1953009;73;21038;-61
2021/11/25 05:58:01;;;;;;;28.17;9.98;;;;;;;0.57;70.13;102556.23;1951085;73;21026;-61
2021/11/25 06:00:30;;;;;;;24.50;9.60;;;;;;;0.58;70.07;102547.64;1952934;73;21074;-61
2021/11/25 06:03:01;;;;;;;28.80;10.00;;;;;;;0.62;70.08;102555.97;1953005;73;21082;-63
2021/11/25 06:05:30;;;;;;;24.95;8.98;;;;;;;0.63;70.20;102559.05;1953099;73;21618;-64
2021/11/25 06:07:59;;;;;;;29.15;9.48;;;;;;;0.63;70.23;102562.03;1936786;73;21606;-63
2021/11/25 06:10:29;;;;;;;25.68;8.85;;;;;;;0.59;70.45;102555.91;1926641;74;21453;-64
2021/11/25 06:12:59;;;;;;;41.00;14.20;;;;;;;0.61;70.46;102562.01;1926631;74;21035;-63
2021/11/25 06:15:28;;;;;;;32.93;11.22;;;;;;;0.63;70.41;102562.94;1926600;74;21464;-65
2021/11/25 06:17:57;;;;;;;36.03;14.05;;;;;;;0.67;70.62;102562.19;1949194;73;21042;-65
2021/11/25 06:20:26;;;;;;;44.10;16.15;;;;;;;0.85;70.75;102555.80;1952947;73;21421;-65
2021/11/25 06:22:56;;;;;;;36.38;12.98;;;;;;;1.28;70.38;102551.87;1927441;73;21445;-65
2021/11/25 06:25:26;;;;;;;21.23;9.90;;;;;;;1.62;69.57;102547.61;1943289;74;21556;-64
2021/11/25 06:27:55;;;;;;;23.77;9.80;;;;;;;2.29;68.45;102553.23;1921130;74;21031;-65
2021/11/25 06:30:24;;;;;;;39.67;14.15;;;;;;;2.35;67.52;102555.53;1919311;75;21104;-65
2021/11/25 06:32:53;;;;;;;37.67;13.15;;;;;;;2.28;67.02;102554.06;1919369;75;21091;-64
2021/11/25 06:35:23;;;;;;;42.75;14.45;;;;;;;2.21;66.80;102548.25;1919219;75;21457;-65
2021/11/25 06:37:54;;;;;;;29.25;11.50;;;;;;;2.26;66.90;102551.85;1944261;74;21019;-64
2021/11/25 06:40:25;;;;;;;30.85;10.68;;;;;;;2.52;66.84;102550.30;1946589;73;21011;-64
2021/11/25 06:42:56;;;;;;;39.80;13.98;;;;;;;2.56;66.25;102548.22;1943143;74;21126;-61
2021/11/25 06:45:26;;;;;;;31.23;10.65;;;;;;;2.77;66.10;102547.84;1919230;74;21031;-61
2021/11/25 06:47:56;;;;;;;26.33;9.38;;;;;;;3.20;65.21;102545.27;1919352;75;21113;-63
2021/11/25 06:50:26;;;;;;;18.55;7.97;;;;;;;3.63;64.39;102547.41;1919344;75;21082;-62
2021/11/25 06:52:55;;;;;;;35.98;14.78;;;;;;;3.85;63.73;102540.45;1921114;74;21527;-61
2021/11/25 06:55:24;;;;;;;41.60;15.72;;;;;;;3.94;63.84;102538.84;1919148;75;21540;-63
2021/11/25 06:57:53;;;;;;;30.08;11.48;;;;;;;4.70;63.04;102536.98;1919366;75;21446;-61
2021/11/25 07:00:25;;;;;;;25.55;8.43;;;;;;;4.64;62.34;102537.77;1919261;74;21478;-65
2021/11/25 07:02:55;;;;;;;31.70;11.38;;;;;;;4.21;62.28;102534.09;1919245;75;21100;-63
2021/11/25 07:05:25;;;;;;;33.45;9.20;;;;;;;3.78;62.70;102533.38;1919339;75;21458;-62
2021/11/25 07:07:56;;;;;;;26.17;9.88;;;;;;;3.72;63.31;102529.77;1944620;74;21094;-63
2021/11/25 07:10:26;;;;;;;35.05;12.43;;;;;;;4.00;62.97;102534.63;1946495;74;21461;-63
2021/11/25 07:12:55;;;;;;;20.70;8.43;;;;;;;4.07;62.64;102531.67;1943736;74;21503;-64
2021/11/25 07:15:25;;;;;;;19.98;9.73;;;;;;;4.60;61.44;102526.41;1919232;75;21454;-64
2021/11/25 07:17:55;;;;;;;20.27;9.33;;;;;;;5.41;60.21;102523.95;1919183;75;21121;-63
2021/11/25 07:20:24;;;;;;;24.15;9.53;;;;;;;6.36;58.01;102521.37;1919248;75;21039;-64
2021/11/25 07:22:53;;;;;;;16.52;8.33;;;;;;;7.21;56.39;102517.87;1919144;74;21533;-63
2021/11/25 07:25:24;;;;;;;22.82;8.55;;;;;;;8.28;55.64;102513.60;1921025;74;21051;-63
2021/11/25 07:27:54;;;;;;;22.07;9.95;;;;;;;8.16;54.95;102513.64;1919373;75;21059;-63
2021/11/25 07:30:23;;;;;;;17.50;7.62;;;;;;;8.07;55.03;102514.51;1919229;75;21034;-62
2021/11/25 07:32:52;;;;;;;22.22;8.20;;;;;;;7.67;54.79;102512.75;1929034;74;21011;-64
2021/11/25 07:35:23;;;;;;;20.92;9.75;;;;;;;7.25;54.54;102506.53;1946470;74;21089;-63
2021/11/25 07:37:54;;;;;;;27.20;11.18;;;;;;;6.93;55.03;102513.84;1946344;74;21023;-63
2021/11/25 07:40:25;;;;;;;17.45;7.62;;;;;;;6.42;55.69;102515.30;1924114;74;21113;-61
2021/11/25 07:42:54;;;;;;;20.05;9.73;;;;;;;7.15;54.47;102508.22;1919251;75;21027;-64
2021/11/25 07:45:24;;;;;;;23.70;9.28;;;;;;;8.08;53.12;102493.97;1919340;75;21413;-65
2021/11/25 07:47:52;;;;;;;14.70;6.75;;;;;;;9.15;51.94;102491.51;1919328;75;21035;-64
2021/11/25 07:50:26;;;;;;;14.87;7.30;;;;;;;9.93;49.70;102488.78;1919216;75;21518;-64
2021/11/25 07:52:52;;;;;;;14.15;7.72;;;;;;;10.07;49.17;102495.68;1919003;75;21045;-62
2021/11/25 07:55:22;;;;;;;11.70;6.33;;;;;;;10.31;48.63;102489.34;1942888;74;21047;-62
2021/11/25 07:57:51;;;;;;;25.90;10.95;;;;;;;10.77;46.48;102476.56;1946298;74;21488;-62
2021/11/25 08:00:22;;;;;;;19.90;9.85;;;;;;;11.33;46.85;102476.69;1946509;74;21368;-62
2021/11/25 08:02:51;;;;;;;24.40;9.85;;;;;;;12.05;46.18;102483.94;1946501;74;21027;-61
2021/11/25 08:05:24;;;;;;;20.05;9.33;;;;;;;12.59;45.61;102473.69;1926690;74;21062;-62
2021/11/25 08:07:52;;;;;;;14.35;7.12;;;;;;;13.04;44.49;102468.37;1919017;75;21040;-62
2021/11/25 08:10:23;;;;;;;18.15;9.40;;;;;;;13.16;42.72;102467.67;1919197;75;21039;-62
2021/11/25 08:12:54;;;;;;;16.35;8.08;;;;;;;12.87;42.31;102465.20;1919260;75;21109;-66
2021/11/25 08:15:23;;;;;;;21.65;8.88;;;;;;;12.41;42.33;102462.16;1919332;75;21039;-67
2021/11/25 08:17:53;;;;;;;18.70;8.75;;;;;;;12.39;42.05;102458.69;1919192;75;21038;-67
2021/11/25 08:20:22;;;;;;;21.20;8.05;;;;;;;12.77;41.45;102453.09;1941428;74;21126;-66
2021/11/25 08:22:51;;;;;;;23.27;9.43;;;;;;;12.87;40.64;102449.34;1947965;72;21067;-65
2021/11/25 08:25:23;;;;;;;22.85;11.30;;;;;;;13.09;40.80;102447.09;1953077;72;21505;-63
2021/11/25 08:27:56;;;;;;;16.17;7.37;;;;;;;13.56;40.56;102442.52;1953011;73;21023;-61
2021/11/25 08:30:24;;;;;;;20.68;7.58;;;;;;;13.96;39.88;102450.78;1953299;73;21112;-64
2021/11/25 08:32:54;;;;;;;14.30;5.90;;;;;;;13.91;39.57;102438.11;1929193;74;21539;-62
2021/11/25 08:35:23;;;;;;;9.90;4.92;;;;;;;14.01;38.36;102434.76;1929114;74;21462;-64
2021/11/25 08:37:52;;;;;;;11.85;6.25;;;;;;;13.90;37.71;102437.69;1929219;74;21535;-65
2021/11/25 08:40:21;;;;;;;10.13;5.05;;;;;;;13.95;37.17;102432.28;1929249;74;21050;-67
2021/11/25 08:42:51;;;;;;;13.85;6.45;;;;;;;13.86;36.71;102423.66;1929250;74;21082;-64
2021/11/25 08:45:21;;;;;;;14.73;7.50;;;;;;;13.80;36.69;102419.85;1931211;73;21493;-64
2021/11/25 08:47:52;;;;;;;16.82;7.10;;;;;;;13.84;35.96;102420.17;1944676;73;21531;-66
2021/11/25 08:50:20;;;;;;;18.73;8.60;;;;;;;13.97;36.05;102419.41;1959262;73;21190;-65
2021/11/25 08:52:50;;;;;;;14.50;7.65;;;;;;;14.32;36.34;102415.39;1951148;73;21453;-66
2021/11/25 08:55:20;;;;;;;11.83;5.85;;;;;;;14.44;35.38;102411.05;1940122;73;21058;-66
2021/11/25 08:57:49;;;;;;;16.50;7.55;;;;;;;14.39;34.46;102401.06;1938426;74;21523;-67
2021/11/25 09:00:22;;;;;;;12.88;6.97;;;;;;;14.08;34.58;102406.73;1933878;74;21469;-64
2021/11/25 09:02:49;;;;;;;47.80;13.50;;;;;;;13.80;34.54;102403.97;1939765;74;21112;-63
2021/11/25 09:05:17;;;;;;;14.98;7.10;;;;;;;13.61;34.91;102404.01;1940123;74;21134;-64
2021/11/25 09:07:46;;;;;;;18.20;8.25;;;;;;;13.74;35.63;102406.78;1940198;74;21010;-63
2021/11/25 09:10:15;;;;;;;20.08;10.10;;;;;;;13.88;35.27;102400.64;1938955;74;21038;-63
2021/11/25 09:12:44;;;;;;;20.27;9.85;;;;;;;14.17;34.99;102393.70;1932670;74;21042;-60
2021/11/25 09:15:13;;;;;;;19.23;9.15;;;;;;;14.24;35.00;102392.63;1932613;74;21106;-63
2021/11/25 09:17:42;;;;;;;16.37;6.85;;;;;;;14.67;34.90;102386.56;1932709;74;21058;-62
2021/11/25 09:20:12;;;;;;;17.73;7.62;;;;;;;14.77;34.28;102388.47;1932644;74;21014;-63
2021/11/25 09:22:41;;;;;;;18.95;7.47;;;;;;;14.56;34.11;102385.52;1931379;73;21074;-61
2021/11/25 09:25:11;;;;;;;15.58;7.22;;;;;;;14.63;34.16;102381.81;1925737;73;21066;-61
2021/11/25 09:27:40;;;;;;;22.73;9.68;;;;;;;14.66;34.27;102376.43;1921288;74;21164;-61
2021/11/25 09:30:10;;;;;;;12.65;6.45;;;;;;;14.61;33.75;102374.36;1933678;74;21033;-61
2021/11/25 09:32:38;;;;;;;17.23;8.85;;;;;;;14.36;33.91;102378.14;1941675;73;21092;-62
2021/11/25 09:35:08;;;;;;;16.40;7.37;;;;;;;14.61;34.01;102364.23;1933694;73;21003;-61
2021/11/25 09:37:37;;;;;;;13.53;6.47;;;;;;;14.87;33.61;102370.05;1929845;73;21015;-61
2021/11/25 09:40:12;;;;;;;17.05;7.75;;;;;;;14.82;33.58;102368.85;1922233;73;21015;-67
2021/11/25 09:42:38;;;;;;;39.25;13.48;;;;;;;14.66;33.14;102360.52;1913987;74;21547;-62
2021/11/25 09:45:08;;;;;;;13.93;7.95;;;;;;;14.82;33.35;102360.04;1920128;75;21049;-65
2021/11/25 09:47:38;;;;;;;19.60;8.08;;;;;;;14.94;33.37;102362.31;1924617;74;21045;-64
2021/11/25 09:50:08;;;;;;;23.73;9.63;;;;;;;14.90;33.52;102363.77;1923334;74;21471;-63
2021/11/25 09:52:36;;;;;;;13.15;7.17;;;;;;;14.82;33.75;102354.27;1894978;74;21056;-63
2021/11/25 09:55:06;;;;;;;17.67;8.23;;;;;;;15.17;33.41;102358.91;1917854;75;21033;-64
2021/11/25 09:57:35;;;;;;;17.80;8.25;;;;;;;14.95;33.89;102355.22;1927021;73;21041;-62
2021/11/25 10:00:06;;;;;;;15.43;7.10;;;;;;;15.26;33.67;102355.09;1899547;75;21057;-62
2021/11/25 10:02:37;;;;;;;17.12;8.00;;;;;;;15.33;33.39;102352.66;1888376;74;21049;-63
2021/11/25 10:05:07;;;;;;;15.58;7.97;;;;;;;15.07;33.45;102357.49;1922722;73;21034;-63
2021/11/25 10:07:38;;;;;;;25.32;8.85;;;;;;;15.00;33.53;102347.52;1916693;74;21696;-63
2021/11/25 10:10:27;;;;;;;17.20;8.23;;;;;;;15.32;33.43;102344.73;1918710;74;21086;-63
2021/11/25 10:16:39;;;;;;;13.78;6.60;;;;;;;15.12;33.24;102342.73;1920335;72;21086;-61
2021/11/25 10:19:17;;;;;;;14.33;6.12;;;;;;;14.59;33.11;102332.45;1916480;74;21034;-59
2021/11/25 10:21:56;;;;;;;17.87;8.78;;;;;;;14.51;33.50;102324.28;1889385;74;21167;-60
2021/11/25 10:24:46;;;;;;;14.05;7.05;;;;;;;14.11;33.14;102328.98;1923826;73;21031;-63
2021/11/25 10:27:26;;;;;;;16.75;7.87;;;;;;;13.96;33.54;102323.67;1930422;73;21015;-63
2021/11/25 10:30:13;;;;;;;20.35;9.35;;;;;;;13.86;33.81;102315.56;1933333;73;21163;-62
2021/11/25 10:32:44;;;;;;;16.05;7.75;;;;;;;14.21;33.66;102301.30;1926640;73;21064;-59
2021/11/25 10:35:27;;;;;;;10.15;5.28;;;;;;;14.28;33.59;102308.16;1943254;73;20995;-66
2021/11/25 10:38:19;;;;;;;14.00;4.33;;;;;;;14.20;33.58;102306.20;1958343;73;21170;-60
2021/11/25 10:40:27;;;;;;;15.60;5.78;;;;;;;13.77;33.67;102299.47;1930941;73;20999;-59
2021/11/25 10:42:56;;;;;;;10.48;5.35;;;;;;;13.67;33.96;102308.58;1929387;73;21532;-60
2021/11/25 10:45:26;;;;;;;14.00;6.97;;;;;;;13.64;33.94;102300.72;1937917;73;21067;-59
2021/11/25 10:48:00;;;;;;;13.60;7.03;;;;;;;13.03;34.73;102295.20;1917204;74;21066;-59
2021/11/25 10:50:30;;;;;;;13.05;6.42;;;;;;;12.24;35.32;102302.25;1915559;75;21481;-59
2021/11/25 10:53:05;;;;;;;13.90;6.45;;;;;;;12.06;35.82;102302.62;1890619;76;21091;-58
2021/11/25 10:55:37;;;;;;;15.30;7.20;;;;;;;12.36;35.47;102296.72;1891074;74;21022;-62
2021/11/25 10:58:07;;;;;;;11.57;4.83;;;;;;;12.65;35.00;102291.67;1923812;74;21027;-60
2021/11/25 11:00:45;;;;;;;18.15;8.93;;;;;;;12.78;34.68;102294.91;1923675;74;21554;-60
2021/11/25 11:03:22;;;;;;;19.73;9.93;;;;;;;12.90;34.74;102290.66;1923955;74;21082;-60
2021/11/25 11:05:51;;;;;;;20.10;8.33;;;;;;;12.98;34.67;102291.33;1922242;74;21047;-63
2021/11/25 11:08:20;;;;;;;10.05;5.92;;;;;;;13.00;34.70;102290.83;1917231;75;21043;-63
2021/11/25 11:10:54;;;;;;;9.13;4.62;;;;;;;12.83;34.50;102287.28;1918690;74;21435;-62
2021/11/25 11:18:43;;;;;;;11.70;5.90;;;;;;;12.05;35.22;102287.70;1874995;75;21055;-65
2021/11/25 11:21:40;;;;;;;10.35;4.87;;;;;;;12.04;35.41;102280.67;1883454;75;21024;-65
2021/11/25 11:24:15;;;;;;;13.55;5.45;;;;;;;11.85;35.63;102278.38;1905617;75;21059;-62
2021/11/25 11:27:10;;;;;;;14.40;4.83;;;;;;;11.77;35.88;102276.34;1910880;75;20988;-63
2021/11/25 11:29:37;;;;;;;11.57;5.33;;;;;;;11.84;36.06;102277.97;1915907;75;21500;-59
2021/11/25 11:32:09;;;;;;;9.50;4.90;;;;;;;11.68;36.26;102273.89;1909606;75;21118;-61
2021/11/25 11:34:38;;;;;;;10.98;5.83;;;;;;;11.51;36.43;102277.70;1905731;75;21514;-57
2021/11/25 11:37:07;;;;;;;5.22;3.10;;;;;;;11.15;36.84;102273.48;1906350;75;21023;-57
2021/11/25 11:39:38;;;;;;;8.00;3.35;;;;;;;10.84;37.41;102271.80;1907150;75;21556;-59
2021/11/25 11:42:07;;;;;;;10.25;4.22;;;;;;;10.61;37.80;102269.08;1913591;75;21059;-59
2021/11/25 11:44:36;;;;;;;11.12;4.30;;;;;;;10.23;38.41;102264.30;1917080;75;21441;-59